Time;durP1;ratioP1;P1;durP2;ratioP2;P2;SDS_P1;SDS_P2;PMS_P1;PMS_P2;Temp;Humidity;BMP_temperature;BMP_pressure;BME280_temperature;BME280_humidity;BME280_pressure;Samples;Min_cycle;Max_cycle;Signal;HPM_P1;HPM_P2
2022/07/07 00:01:56;;;;;;;15.55;8.02;;;;;;;;;;5088337;28;20430;-73
2022/07/07 00:04:26;;;;;;;15.25;8.07;;;;;;;;;;5090044;28;20048;-73
2022/07/07 00:06:56;;;;;;;15.93;7.22;;;;;;;;;;5086272;28;20063;-72
2022/07/07 00:09:29;;;;;;;12.27;7.10;;;;;;;;;;5088327;28;20351;-73
2022/07/07 00:12:00;;;;;;;11.35;6.97;;;;;;;;;;5089589;28;20052;-73
2022/07/07 00:14:30;;;;;;;11.50;6.88;;;;;;;;;;5089156;28;20059;-72
2022/07/07 00:17:00;;;;;;;12.43;6.05;;;;;;;;;;5089334;28;20051;-73
2022/07/07 00:19:30;;;;;;;10.00;6.80;;;;;;;;;;5089833;28;20554;-73
2022/07/07 00:22:01;;;;;;;11.90;7.15;;;;;;;;;;5089415;28;20047;-74
2022/07/07 00:24:31;;;;;;;14.38;6.65;;;;;;;;;;5089407;28;20048;-73
2022/07/07 00:27:02;;;;;;;17.60;8.07;;;;;;;;;;5089530;28;20055;-73
2022/07/07 00:29:32;;;;;;;14.75;6.70;;;;;;;;;;5070239;28;20426;-73
2022/07/07 00:32:02;;;;;;;11.00;7.15;;;;;;;;;;5088688;28;20060;-72
2022/07/07 00:34:32;;;;;;;10.60;6.95;;;;;;;;;;5089020;28;20055;-73
2022/07/07 00:37:02;;;;;;;12.52;6.97;;;;;;;;;;5088310;28;20052;-73
2022/07/07 00:39:32;;;;;;;12.77;6.30;;;;;;;;;;5088779;28;20059;-72
2022/07/07 00:42:02;;;;;;;12.05;5.63;;;;;;;;;;5087413;28;20063;-72
2022/07/07 00:44:32;;;;;;;8.93;5.68;;;;;;;;;;5088668;28;20410;-72
2022/07/07 00:47:01;;;;;;;13.70;6.63;;;;;;;;;;5088567;28;20055;-73
2022/07/07 00:49:32;;;;;;;17.70;6.72;;;;;;;;;;5088668;28;20059;-73
2022/07/07 00:52:01;;;;;;;11.20;6.03;;;;;;;;;;5087844;28;20052;-72
2022/07/07 00:54:31;;;;;;;14.18;5.93;;;;;;;;;;5088565;28;20060;-73
2022/07/07 00:57:02;;;;;;;9.38;5.63;;;;;;;;;;5088724;28;20141;-73
2022/07/07 00:59:58;;;;;;;10.88;6.18;;;;;;;;;;5088985;28;20051;-72
2022/07/07 01:02:30;;;;;;;9.90;6.13;;;;;;;;;;5088742;28;20055;-76
2022/07/07 01:05:03;;;;;;;9.98;6.47;;;;;;;;;;5088636;28;20059;-72
2022/07/07 01:07:35;;;;;;;9.88;6.18;;;;;;;;;;5088466;28;20052;-73
2022/07/07 01:10:07;;;;;;;15.80;7.03;;;;;;;;;;5070175;28;20048;-72
2022/07/07 01:12:40;;;;;;;15.05;7.22;;;;;;;;;;5071240;28;20500;-72
2022/07/07 01:15:12;;;;;;;11.88;6.75;;;;;;;;;;5088446;28;20044;-72
2022/07/07 01:17:42;;;;;;;12.82;6.40;;;;;;;;;;5088115;28;20044;-73
2022/07/07 01:20:13;;;;;;;17.27;8.13;;;;;;;;;;5088325;28;20048;-72
2022/07/07 01:22:54;;;;;;;11.10;6.68;;;;;;;;;;5088510;28;20056;-73
2022/07/07 01:25:24;;;;;;;16.23;7.93;;;;;;;;;;5087925;28;20040;-72
2022/07/07 01:27:54;;;;;;;17.02;8.00;;;;;;;;;;5088475;28;20048;-72
2022/07/07 01:30:24;;;;;;;12.98;6.43;;;;;;;;;;5086913;28;20052;-72
2022/07/07 01:32:54;;;;;;;15.63;6.72;;;;;;;;;;5088272;28;20044;-72
2022/07/07 01:35:23;;;;;;;;;;;;;;;;;;5089003;28;20048;-73
2022/07/07 01:37:53;;;;;;;13.82;7.63;;;;;;;;;;5069804;28;19927;-72
2022/07/07 01:40:22;;;;;;;;;;;;;;;;;;5088373;28;20498;-71
2022/07/07 01:42:52;;;;;;;12.20;6.63;;;;;;;;;;5087882;28;19931;-73
2022/07/07 01:45:22;;;;;;;11.73;7.25;;;;;;;;;;5087725;28;20075;-72
2022/07/07 01:47:51;;;;;;;15.75;7.15;;;;;;;;;;5087841;28;20066;-73
2022/07/07 01:50:21;;;;;;;;;;;;;;;;;;5088053;28;20055;-72
2022/07/07 01:52:50;;;;;;;14.93;6.65;;;;;;;;;;5087277;28;19924;-72
2022/07/07 01:55:20;;;;;;;;;;;;;;;;;;5088104;28;20075;-72
2022/07/07 01:57:49;;;;;;;11.18;5.97;;;;;;;;;;5087479;28;19928;-73
2022/07/07 02:00:19;;;;;;;;;;;;;;;;;;5088512;28;20060;-72
2022/07/07 02:02:48;;;;;;;13.88;5.50;;;;;;;;;;5088388;28;19923;-71
2022/07/07 02:05:18;;;;;;;9.88;5.78;;;;;;;;;;5087577;28;20055;-72
2022/07/07 02:07:48;;;;;;;12.98;5.78;;;;;;;;;;5087348;28;20064;-72
2022/07/07 02:11:12;;;;;;;;;;;;;;;;;;5087892;28;20040;-73
2022/07/07 02:13:07;;;;;;;9.95;4.90;;;;;;;;;;5087579;28;19931;-72
2022/07/07 02:15:38;;;;;;;10.68;4.82;;;;;;;;;;5068603;28;20044;-72
2022/07/07 02:18:09;;;;;;;8.00;5.07;;;;;;;;;;5087274;28;20051;-72
2022/07/07 02:20:40;;;;;;;11.98;5.10;;;;;;;;;;5087600;28;20040;-72
2022/07/07 02:23:09;;;;;;;;;;;;;;;;;;5088143;28;20515;-72
2022/07/07 02:25:39;;;;;;;9.13;5.03;;;;;;;;;;5087423;28;20395;-71
2022/07/07 02:28:09;;;;;;;;;;;;;;;;;;5087726;28;21044;-72
2022/07/07 02:30:39;;;;;;;9.85;4.80;;;;;;;;;;5086025;28;19924;-72
2022/07/07 02:33:09;;;;;;;8.13;4.65;;;;;;;;;;5087345;28;20051;-72
2022/07/07 02:35:38;;;;;;;9.25;4.70;;;;;;;;;;5086989;28;20044;-72
2022/07/07 02:38:08;;;;;;;;;;;;;;;;;;5087197;28;20048;-72
2022/07/07 02:40:37;;;;;;;10.30;4.43;;;;;;;;;;5086718;28;19923;-72
2022/07/07 02:43:08;;;;;;;7.03;4.70;;;;;;;;;;5086695;28;20054;-72
2022/07/07 02:45:37;;;;;;;9.35;4.90;;;;;;;;;;5086834;28;20518;-72
2022/07/07 02:48:10;;;;;;;12.32;4.80;;;;;;;;;;5087211;28;20036;-72
2022/07/07 02:50:40;;;;;;;11.55;5.53;;;;;;;;;;5086796;28;20360;-72
2022/07/07 02:53:11;;;;;;;7.95;4.53;;;;;;;;;;5086878;28;20399;-72
2022/07/07 02:55:42;;;;;;;7.85;4.85;;;;;;;;;;5086902;28;20052;-73
2022/07/07 02:58:19;;;;;;;8.13;4.70;;;;;;;;;;5086464;28;20058;-73
2022/07/07 03:00:51;;;;;;;14.15;5.32;;;;;;;;;;5086638;28;20047;-73
2022/07/07 03:03:22;;;;;;;11.82;5.35;;;;;;;;;;5086401;28;20380;-73
2022/07/07 03:05:52;;;;;;;9.18;4.57;;;;;;;;;;5070111;28;20075;-76
2022/07/07 03:08:22;;;;;;;;;;;;;;;;;;5091414;28;20507;-75
2022/07/07 03:10:59;;;;;;;12.93;4.78;;;;;;;;;;5091101;28;19931;-72
2022/07/07 03:13:30;;;;;;;8.63;5.07;;;;;;;;;;5091105;28;20058;-72
2022/07/07 03:16:01;;;;;;;7.97;5.25;;;;;;;;;;5090736;28;20044;-72
2022/07/07 03:18:31;;;;;;;7.45;5.20;;;;;;;;;;5090515;28;20625;-72
2022/07/07 03:21:01;;;;;;;9.45;5.97;;;;;;;;;;5090443;28;20051;-72
2022/07/07 03:23:31;;;;;;;10.98;4.82;;;;;;;;;;5090609;28;20047;-73
2022/07/07 03:26:01;;;;;;;13.75;5.20;;;;;;;;;;5072699;28;20415;-72
2022/07/07 03:28:32;;;;;;;8.18;4.80;;;;;;;;;;5090165;28;20047;-73
2022/07/07 03:31:02;;;;;;;7.45;5.25;;;;;;;;;;5090324;28;20387;-72
2022/07/07 03:33:32;;;;;;;7.38;4.60;;;;;;;;;;5090640;28;20414;-72
2022/07/07 03:36:04;;;;;;;8.02;5.00;;;;;;;;;;5073103;28;20047;-72
2022/07/07 03:38:34;;;;;;;10.35;5.10;;;;;;;;;;5090568;28;20075;-72
2022/07/07 03:41:04;;;;;;;9.63;5.20;;;;;;;;;;5090604;28;20055;-72
2022/07/07 03:43:34;;;;;;;11.05;5.65;;;;;;;;;;5090234;28;20048;-73
2022/07/07 03:46:03;;;;;;;7.18;4.78;;;;;;;;;;5090080;28;20047;-73
2022/07/07 03:48:33;;;;;;;8.10;5.07;;;;;;;;;;5090322;28;20044;-72
2022/07/07 03:51:03;;;;;;;7.97;4.95;;;;;;;;;;5090123;28;20051;-73
2022/07/07 03:53:33;;;;;;;8.95;5.82;;;;;;;;;;5089809;28;20505;-72
2022/07/07 03:56:03;;;;;;;12.38;6.10;;;;;;;;;;5089827;28;20052;-72
2022/07/07 03:58:33;;;;;;;8.65;5.30;;;;;;;;;;5088775;28;20048;-73
2022/07/07 04:01:03;;;;;;;9.40;5.75;;;;;;;;;;5090055;28;20051;-72
2022/07/07 04:03:33;;;;;;;9.68;5.38;;;;;;;;;;5072279;28;20051;-72
2022/07/07 04:06:04;;;;;;;10.63;6.00;;;;;;;;;;5070940;28;20503;-72
2022/07/07 04:08:34;;;;;;;13.00;5.88;;;;;;;;;;5089825;28;20047;-73
2022/07/07 04:11:05;;;;;;;9.18;5.70;;;;;;;;;;5089263;28;20055;-72
2022/07/07 04:13:35;;;;;;;7.25;5.13;;;;;;;;;;5089354;28;20040;-72
2022/07/07 04:16:05;;;;;;;11.43;5.88;;;;;;;;;;5089288;28;20052;-73
2022/07/07 04:18:35;;;;;;;11.73;5.65;;;;;;;;;;5089496;28;20043;-73
2022/07/07 04:21:05;;;;;;;11.38;5.05;;;;;;;;;;5089341;28;20040;-73
2022/07/07 04:23:35;;;;;;;9.52;5.68;;;;;;;;;;5089573;28;20044;-72
2022/07/07 04:26:05;;;;;;;11.13;5.60;;;;;;;;;;5070631;28;20060;-73
2022/07/07 04:28:35;;;;;;;11.18;5.30;;;;;;;;;;5088922;28;20399;-72
2022/07/07 04:31:05;;;;;;;8.32;5.30;;;;;;;;;;5088828;28;20064;-73
2022/07/07 04:33:35;;;;;;;8.93;5.53;;;;;;;;;;5089278;28;20055;-72
2022/07/07 04:36:05;;;;;;;9.68;5.32;;;;;;;;;;5089169;28;20043;-73
2022/07/07 04:38:35;;;;;;;9.90;6.00;;;;;;;;;;5089066;28;20044;-72
2022/07/07 04:41:05;;;;;;;;;;;;;;;;;;5089340;28;20048;-72
2022/07/07 04:43:34;;;;;;;11.35;5.50;;;;;;;;;;5070926;28;19924;-72
2022/07/07 04:46:04;;;;;;;11.93;5.43;;;;;;;;;;5088638;28;20052;-72
2022/07/07 04:48:34;;;;;;;9.77;5.80;;;;;;;;;;5070629;28;20051;-73
2022/07/07 04:51:05;;;;;;;15.23;6.32;;;;;;;;;;5088761;28;20052;-72
2022/07/07 04:53:34;;;;;;;12.13;5.22;;;;;;;;;;5070218;28;20070;-72
2022/07/07 04:56:05;;;;;;;8.60;5.72;;;;;;;;;;5088804;28;20399;-72
2022/07/07 04:58:35;;;;;;;11.05;5.18;;;;;;;;;;5088315;28;20056;-73
2022/07/07 05:01:04;;;;;;;;;;;;;;;;;;5089224;28;20070;-72
2022/07/07 05:03:34;;;;;;;8.07;5.45;;;;;;;;;;5089238;28;19931;-73
2022/07/07 05:06:04;;;;;;;12.10;5.63;;;;;;;;;;5088067;28;20052;-72
2022/07/07 05:08:34;;;;;;;8.20;5.20;;;;;;;;;;5088845;28;20048;-73
2022/07/07 05:11:04;;;;;;;8.48;5.20;;;;;;;;;;5088229;28;20056;-72
2022/07/07 05:13:34;;;;;;;10.35;6.10;;;;;;;;;;5088904;28;20043;-72
2022/07/07 05:16:05;;;;;;;9.38;5.60;;;;;;;;;;5088426;28;20356;-72
2022/07/07 05:18:35;;;;;;;10.65;5.70;;;;;;;;;;5088352;28;20051;-72
2022/07/07 05:21:06;;;;;;;9.05;5.20;;;;;;;;;;5088391;28;20055;-72
2022/07/07 05:23:36;;;;;;;12.35;5.70;;;;;;;;;;5088090;28;20052;-72
2022/07/07 05:26:05;;;;;;;;;;;;;;;;;;5088523;28;20114;-72
2022/07/07 05:28:36;;;;;;;12.77;5.60;;;;;;;;;;5087971;28;19924;-72
2022/07/07 05:31:06;;;;;;;8.35;5.28;;;;;;;;;;5087917;28;20048;-72
2022/07/07 05:33:35;;;;;;;;;;;;;;;;;;5088456;28;20044;-73
2022/07/07 05:36:06;;;;;;;10.00;5.15;;;;;;;;;;5088289;28;19923;-72
2022/07/07 05:38:35;;;;;;;9.00;4.85;;;;;;;;;;5088016;28;20054;-72
2022/07/07 05:41:05;;;;;;;11.65;6.55;;;;;;;;;;5088017;28;20047;-73
2022/07/07 05:43:35;;;;;;;11.73;5.47;;;;;;;;;;5087734;28;20048;-72
2022/07/07 05:46:05;;;;;;;7.45;5.60;;;;;;;;;;5087904;28;20043;-73
2022/07/07 05:48:35;;;;;;;12.40;5.65;;;;;;;;;;5087803;28;20045;-72
2022/07/07 05:51:06;;;;;;;12.75;5.45;;;;;;;;;;5069673;28;20074;-73
2022/07/07 05:53:36;;;;;;;7.97;5.68;;;;;;;;;;5088126;28;20040;-72
2022/07/07 05:56:07;;;;;;;11.52;5.93;;;;;;;;;;5069102;28;20044;-72
2022/07/07 05:58:36;;;;;;;9.75;5.28;;;;;;;;;;5091467;28;20055;-72
2022/07/07 06:01:08;;;;;;;10.73;5.97;;;;;;;;;;5094136;28;20044;-72
2022/07/07 06:03:38;;;;;;;12.05;5.93;;;;;;;;;;5093463;28;20048;-72
2022/07/07 06:06:08;;;;;;;8.18;5.95;;;;;;;;;;5087618;28;20059;-72
2022/07/07 06:08:38;;;;;;;7.82;5.50;;;;;;;;;;5087412;28;20048;-73
2022/07/07 06:11:07;;;;;;;;;;;;;;;;;;5088516;28;20044;-72
2022/07/07 06:13:38;;;;;;;7.75;5.38;;;;;;;;;;5087383;28;20488;-72
2022/07/07 06:16:07;;;;;;;13.18;5.95;;;;;;;;;;5088131;28;20408;-72
2022/07/07 06:18:37;;;;;;;10.50;6.00;;;;;;;;;;5087400;28;20055;-72
2022/07/07 06:21:07;;;;;;;9.20;5.93;;;;;;;;;;5087163;28;20044;-72
2022/07/07 06:23:37;;;;;;;9.48;5.85;;;;;;;;;;5087371;28;20051;-73
2022/07/07 06:26:07;;;;;;;;;;;;;;;;;;5086916;28;20072;-72
2022/07/07 06:28:37;;;;;;;10.77;5.70;;;;;;;;;;5087107;28;19931;-72
2022/07/07 06:31:06;;;;;;;;;;;;;;;;;;5087670;28;20052;-72
2022/07/07 06:33:36;;;;;;;10.63;6.78;;;;;;;;;;5086793;28;19927;-72
2022/07/07 06:36:06;;;;;;;10.85;6.80;;;;;;;;;;5087020;28;20494;-72
2022/07/07 06:38:35;;;;;;;14.52;7.63;;;;;;;;;;5086676;28;20077;-72
2022/07/07 06:41:06;;;;;;;15.45;8.75;;;;;;;;;;5067442;28;20059;-72
2022/07/07 06:43:35;;;;;;;12.77;8.32;;;;;;;;;;5086769;28;20048;-72
2022/07/07 06:46:05;;;;;;;;;;;;;;;;;;5087239;28;20055;-71
2022/07/07 06:48:35;;;;;;;12.77;7.35;;;;;;;;;;5087049;28;19924;-72
2022/07/07 06:51:04;;;;;;;;;;;;;;;;;;5087163;28;20479;-72
2022/07/07 06:53:34;;;;;;;10.38;6.20;;;;;;;;;;5086967;28;19927;-72
2022/07/07 06:56:06;;;;;;;13.20;6.95;;;;;;;;;;5069067;28;20044;-72
2022/07/07 06:58:35;;;;;;;11.23;7.30;;;;;;;;;;5086752;28;20055;-72
2022/07/07 07:01:05;;;;;;;13.75;6.53;;;;;;;;;;5084392;28;20487;-72
2022/07/07 07:03:35;;;;;;;;;;;;;;;;;;5086337;28;20044;-72
2022/07/07 07:06:05;;;;;;;9.65;6.65;;;;;;;;;;5087425;28;19943;-72
2022/07/07 07:08:35;;;;;;;11.77;6.18;;;;;;;;;;5086672;28;20051;-71
2022/07/07 07:11:05;;;;;;;10.02;6.43;;;;;;;;;;5086253;28;20048;-72
2022/07/07 07:13:35;;;;;;;15.45;6.57;;;;;;;;;;5086483;28;20067;-73
2022/07/07 07:16:06;;;;;;;15.20;6.50;;;;;;;;;;5086659;28;20048;-72
2022/07/07 07:18:36;;;;;;;15.27;6.05;;;;;;;;;;5086760;28;20063;-72
2022/07/07 07:21:06;;;;;;;8.63;5.18;;;;;;;;;;5086224;28;20052;-73
2022/07/07 07:23:35;;;;;;;;;;;;;;;;;;5086857;28;20415;-72
2022/07/07 07:26:08;;;;;;;12.57;5.95;;;;;;;;;;5086304;28;19924;-73
2022/07/07 07:28:39;;;;;;;8.25;4.80;;;;;;;;;;5086203;28;20487;-72
2022/07/07 07:31:09;;;;;;;13.27;5.05;;;;;;;;;;5086500;28;20059;-73
2022/07/07 07:33:38;;;;;;;12.32;4.93;;;;;;;;;;5086653;28;20040;-72
2022/07/07 07:36:09;;;;;;;;;;;;;;;;;;5087383;28;20510;-72
2022/07/07 07:38:39;;;;;;;10.77;5.85;;;;;;;;;;5086690;28;20306;-72
2022/07/07 07:41:12;;;;;;;10.82;4.70;;;;;;;;;;5086394;28;20403;-73
2022/07/07 07:43:42;;;;;;;13.52;4.95;;;;;;;;;;5086369;28;20051;-72
2022/07/07 07:46:11;;;;;;;;;;;;;;;;;;5087093;28;20048;-73
2022/07/07 07:48:41;;;;;;;13.32;3.92;;;;;;;;;;5086288;28;19931;-73
2022/07/07 07:51:10;;;;;;;;;;;;;;;;;;5087508;28;20052;-73
2022/07/07 07:53:40;;;;;;;10.13;4.30;;;;;;;;;;5089971;28;19924;-72
2022/07/07 07:56:09;;;;;;;9.00;3.65;;;;;;;;;;5089726;28;20040;-72
2022/07/07 07:58:39;;;;;;;11.88;4.40;;;;;;;;;;5089724;28;20044;-73
2022/07/07 08:01:08;;;;;;;;;;;;;;;;;;5090583;28;20046;-73
2022/07/07 08:03:38;;;;;;;8.18;3.70;;;;;;;;;;5072245;28;20325;-72
2022/07/07 08:06:08;;;;;;;;;;;;;;;;;;5090333;28;20044;-73
2022/07/07 08:08:37;;;;;;;7.75;3.65;;;;;;;;;;5089777;28;19920;-72
2022/07/07 08:11:07;;;;;;;;;;;;;;;;;;5089937;28;20052;-73
2022/07/07 08:13:36;;;;;;;8.27;3.45;;;;;;;;;;5089805;28;19938;-73
2022/07/07 08:16:06;;;;;;;8.98;3.47;;;;;;;;;;5089684;28;20044;-72
2022/07/07 08:18:36;;;;;;;6.78;3.80;;;;;;;;;;5089822;28;20036;-74
2022/07/07 08:21:06;;;;;;;7.03;3.72;;;;;;;;;;5071662;28;20043;-72
2022/07/07 08:23:36;;;;;;;9.07;3.65;;;;;;;;;;5089506;28;20040;-73
2022/07/07 08:26:06;;;;;;;;;;;;;;;;;;5072191;28;20051;-73
2022/07/07 08:28:36;;;;;;;6.40;3.45;;;;;;;;;;5090071;28;19930;-72
2022/07/07 08:31:11;;;;;;;11.13;4.25;;;;;;;;;;5089369;28;20066;-73
2022/07/07 08:33:41;;;;;;;8.00;3.45;;;;;;;;;;5089515;28;20056;-72
2022/07/07 08:36:10;;;;;;;;;;;;;;;;;;5071607;28;20056;-72
2022/07/07 08:38:40;;;;;;;7.95;3.33;;;;;;;;;;5088975;28;19920;-73
2022/07/07 08:41:09;;;;;;;;;;;;;;;;;;5089617;28;20055;-73
2022/07/07 08:43:39;;;;;;;4.18;2.75;;;;;;;;;;5088716;28;20970;-76
2022/07/07 08:46:12;;;;;;;6.80;3.90;;;;;;;;;;5088906;28;20055;-73
2022/07/07 08:48:43;;;;;;;9.48;3.45;;;;;;;;;;5089019;28;20036;-73
2022/07/07 08:51:14;;;;;;;4.82;2.80;;;;;;;;;;5088784;28;20052;-72
2022/07/07 08:53:48;;;;;;;7.07;3.33;;;;;;;;;;5089747;28;20048;-73
2022/07/07 08:56:19;;;;;;;11.25;3.25;;;;;;;;;;5088606;28;20051;-72
2022/07/07 08:58:50;;;;;;;5.38;2.20;;;;;;;;;;5088652;28;20044;-73
2022/07/07 09:01:32;;;;;;;7.50;3.17;;;;;;;;;;5087872;28;20048;-72
2022/07/07 09:04:03;;;;;;;5.68;2.50;;;;;;;;;;5087427;28;20048;-73
2022/07/07 09:06:34;;;;;;;7.45;2.85;;;;;;;;;;5088139;28;20060;-73
2022/07/07 09:09:05;;;;;;;6.55;3.30;;;;;;;;;;5088646;28;20051;-72
2022/07/07 09:11:35;;;;;;;7.63;2.83;;;;;;;;;;5088649;28;20059;-72
2022/07/07 09:14:14;;;;;;;;;;;;;;;;;;5089167;28;20048;-73
2022/07/07 09:16:44;;;;;;;4.38;2.55;;;;;;;;;;5088485;28;20386;-72
2022/07/07 09:19:25;;;;;;;5.97;2.95;;;;;;;;;;5088555;28;20047;-72
2022/07/07 09:21:55;;;;;;;6.68;2.45;;;;;;;;;;5088721;28;20789;-73
2022/07/07 09:24:24;;;;;;;;;;;;;;;;;;5071194;28;20495;-72
2022/07/07 09:26:54;;;;;;;4.75;2.50;;;;;;;;;;5088371;28;19924;-77
2022/07/07 09:29:27;;;;;;;9.25;2.60;;;;;;;;;;5088004;28;20052;-73
2022/07/07 09:32:04;;;;;;;8.13;3.25;;;;;;;;;;5088358;28;20051;-78
2022/07/07 09:34:38;;;;;;;10.50;3.38;;;;;;;;;;5088370;28;20055;-73
2022/07/07 09:39:58;;;;;;;4.95;2.80;;;;;;;;;;5088108;28;20044;-72
2022/07/07 09:42:38;;;;;;;;;;;;;;;;;;5088986;28;20403;-73
2022/07/07 09:45:10;;;;;;;11.30;2.60;;;;;;;;;;5068637;28;20465;-74
2022/07/07 09:47:41;;;;;;;9.27;3.15;;;;;;;;;;5088065;28;20044;-72
2022/07/07 09:50:15;;;;;;;;;;;;;;;;;;5088628;28;20051;-73
2022/07/07 09:52:47;;;;;;;4.88;2.30;;;;;;;;;;5088210;28;19931;-73
2022/07/07 09:55:17;;;;;;;10.45;2.88;;;;;;;;;;5088169;28;20055;-72
2022/07/07 09:57:46;;;;;;;;;;;;;;;;;;5087943;28;20048;-71
2022/07/07 10:00:16;;;;;;;4.20;2.28;;;;;;;;;;5087307;28;19939;-75
2022/07/07 10:02:50;;;;;;;5.88;2.72;;;;;;;;;;5086862;28;20414;-72
2022/07/07 10:05:21;;;;;;;7.82;2.70;;;;;;;;;;5069152;28;20408;-73
2022/07/07 10:07:57;;;;;;;8.80;3.22;;;;;;;;;;5087016;28;20055;-72
2022/07/07 10:10:29;;;;;;;9.77;2.28;;;;;;;;;;5069049;28;20078;-72
2022/07/07 10:13:02;;;;;;;7.47;2.95;;;;;;;;;;5086969;28;20051;-72
2022/07/07 10:15:33;;;;;;;4.85;2.40;;;;;;;;;;5087748;28;20051;-72
2022/07/07 10:18:05;;;;;;;5.30;2.22;;;;;;;;;;5087233;28;20052;-72
2022/07/07 10:20:36;;;;;;;11.35;2.92;;;;;;;;;;5087126;28;20044;-71
2022/07/07 10:23:06;;;;;;;2.95;2.08;;;;;;;;;;5087132;28;20510;-72
2022/07/07 10:25:36;;;;;;;5.85;2.70;;;;;;;;;;5086592;28;20044;-73
2022/07/07 10:28:05;;;;;;;;;;;;;;;;;;5087781;28;20040;-72
2022/07/07 10:30:35;;;;;;;4.70;1.95;;;;;;;;;;5086641;28;19935;-72
2022/07/07 10:33:05;;;;;;;5.70;2.10;;;;;;;;;;5087103;28;20212;-72
2022/07/07 10:35:45;;;;;;;5.80;2.38;;;;;;;;;;5086394;28;20510;-72
2022/07/07 10:38:18;;;;;;;10.80;2.40;;;;;;;;;;5086582;28;20412;-73
2022/07/07 10:40:54;;;;;;;3.60;2.10;;;;;;;;;;5085206;28;20403;-71
2022/07/07 10:43:38;;;;;;;5.47;2.75;;;;;;;;;;5086168;28;20103;-71
2022/07/07 10:46:12;;;;;;;3.40;1.92;;;;;;;;;;5086819;28;20059;-72
2022/07/07 10:48:44;;;;;;;5.82;2.33;;;;;;;;;;5086570;28;20055;-74
2022/07/07 10:51:22;;;;;;;7.45;2.15;;;;;;;;;;5086863;28;20507;-75
2022/07/07 10:54:06;;;;;;;6.80;2.30;;;;;;;;;;5087125;28;20055;-75
2022/07/07 10:56:55;;;;;;;9.95;2.35;;;;;;;;;;5086722;28;20406;-72
2022/07/07 10:59:26;;;;;;;6.78;2.13;;;;;;;;;;5086716;28;20044;-71
2022/07/07 11:02:01;;;;;;;6.63;2.08;;;;;;;;;;5086941;28;20052;-72
2022/07/07 11:04:47;;;;;;;9.95;2.58;;;;;;;;;;5086502;28;20044;-74
2022/07/07 11:07:20;;;;;;;12.10;2.63;;;;;;;;;;5086655;28;20048;-71
2022/07/07 11:09:57;;;;;;;7.60;2.20;;;;;;;;;;5087103;28;20491;-72
2022/07/07 11:12:41;;;;;;;6.13;2.33;;;;;;;;;;5086542;28;20040;-71
2022/07/07 11:15:21;;;;;;;6.40;2.47;;;;;;;;;;5086570;28;20052;-72
2022/07/07 11:17:57;;;;;;;8.60;3.20;;;;;;;;;;5086510;28;20040;-76
2022/07/07 11:20:30;;;;;;;16.50;4.25;;;;;;;;;;5086207;28;20502;-74
2022/07/07 11:23:11;;;;;;;4.53;2.42;;;;;;;;;;5086564;28;20076;-73
2022/07/07 11:25:42;;;;;;;5.80;2.58;;;;;;;;;;5086210;28;20530;-73
2022/07/07 11:28:12;;;;;;;5.38;2.53;;;;;;;;;;5070895;28;20060;-73
2022/07/07 11:30:42;;;;;;;11.38;4.32;;;;;;;;;;5089705;28;20380;-73
2022/07/07 11:33:12;;;;;;;8.90;4.13;;;;;;;;;;5069894;28;20444;-72
2022/07/07 11:35:42;;;;;;;6.82;2.80;;;;;;;;;;5089156;28;20055;-72
2022/07/07 11:38:12;;;;;;;7.25;4.95;;;;;;;;;;5088553;28;20052;-73
2022/07/07 11:40:45;;;;;;;12.15;3.42;;;;;;;;;;5089345;28;20051;-72
2022/07/07 11:43:26;;;;;;;6.78;3.40;;;;;;;;;;5088614;28;20071;-71
2022/07/07 11:45:56;;;;;;;5.40;2.60;;;;;;;;;;5088890;28;20044;-71
2022/07/07 11:48:34;;;;;;;9.90;2.35;;;;;;;;;;5089775;28;20483;-71
2022/07/07 11:51:05;;;;;;;3.65;2.10;;;;;;;;;;5090430;28;20043;-71
2022/07/07 11:53:36;;;;;;;9.98;2.53;;;;;;;;;;5089921;28;20052;-73
2022/07/07 11:56:06;;;;;;;4.78;1.90;;;;;;;;;;5089902;28;20044;-73
2022/07/07 11:58:36;;;;;;;4.68;2.20;;;;;;;;;;5090144;28;20043;-71
2022/07/07 12:01:06;;;;;;;5.63;2.22;;;;;;;;;;5090314;28;20044;-71
2022/07/07 12:03:37;;;;;;;5.60;2.58;;;;;;;;;;5089723;28;20450;-73
2022/07/07 12:06:07;;;;;;;8.77;2.42;;;;;;;;;;5089303;28;20048;-72
2022/07/07 12:08:37;;;;;;;9.45;2.70;;;;;;;;;;5089629;28;20048;-72
2022/07/07 12:11:08;;;;;;;13.48;3.40;;;;;;;;;;5089878;28;20052;-72
2022/07/07 12:13:37;;;;;;;13.77;2.40;;;;;;;;;;5089766;28;20047;-73
2022/07/07 12:16:08;;;;;;;8.63;2.05;;;;;;;;;;5089305;28;20056;-73
2022/07/07 12:18:41;;;;;;;8.20;1.95;;;;;;;;;;5089057;28;20048;-73
2022/07/07 12:21:14;;;;;;;9.15;2.30;;;;;;;;;;5089769;28;20054;-72
2022/07/07 12:23:45;;;;;;;7.40;2.20;;;;;;;;;;5089310;28;20055;-72
2022/07/07 12:26:26;;;;;;;4.38;2.10;;;;;;;;;;5071249;28;20039;-72
2022/07/07 12:28:59;;;;;;;9.10;2.30;;;;;;;;;;5089622;28;20044;-72
2022/07/07 12:31:30;;;;;;;12.23;2.60;;;;;;;;;;5089447;28;20048;-74
2022/07/07 12:34:11;;;;;;;10.30;2.78;;;;;;;;;;5089039;28;20044;-72
2022/07/07 12:36:43;;;;;;;19.50;3.45;;;;;;;;;;5088748;28;20503;-73
2022/07/07 12:39:20;;;;;;;10.48;2.90;;;;;;;;;;5088984;28;20048;-72
2022/07/07 12:41:53;;;;;;;8.73;3.33;;;;;;;;;;5089153;28;20043;-73
2022/07/07 12:44:29;;;;;;;14.60;2.42;;;;;;;;;;5088919;28;20039;-72
2022/07/07 12:47:19;;;;;;;10.82;2.08;;;;;;;;;;5088934;28;20067;-75
2022/07/07 12:49:57;;;;;;;22.02;3.60;;;;;;;;;;5089342;28;20048;-73
2022/07/07 12:52:28;;;;;;;11.77;2.65;;;;;;;;;;5089168;28;20048;-73
2022/07/07 12:55:09;;;;;;;15.40;3.75;;;;;;;;;;5088868;28;20487;-73
2022/07/07 12:57:41;;;;;;;74.28;13.85;;;;;;;;;;5089215;28;20552;-73
2022/07/07 13:00:25;;;;;;;25.73;4.05;;;;;;;;;;5088841;28;20498;-73
2022/07/07 13:02:55;;;;;;;38.05;7.60;;;;;;;;;;5088444;28;20044;-73
2022/07/07 13:05:25;;;;;;;54.63;10.40;;;;;;;;;;5088345;28;20052;-73
2022/07/07 13:07:55;;;;;;;52.40;7.78;;;;;;;;;;5088557;28;20059;-77
2022/07/07 13:10:26;;;;;;;22.02;4.55;;;;;;;;;;5088471;28;20418;-73
2022/07/07 13:12:56;;;;;;;14.85;3.10;;;;;;;;;;5088376;28;20063;-75
2022/07/07 13:15:26;;;;;;;21.83;5.22;;;;;;;;;;5088451;28;20044;-72
2022/07/07 13:17:55;;;;;;;20.73;3.90;;;;;;;;;;5089052;28;20040;-75
2022/07/07 13:20:25;;;;;;;17.83;3.10;;;;;;;;;;5087809;28;20494;-73
2022/07/07 13:22:55;;;;;;;14.07;3.28;;;;;;;;;;5089212;28;20052;-73
2022/07/07 13:25:25;;;;;;;25.30;6.07;;;;;;;;;;5088593;28;20052;-73
2022/07/07 13:27:54;;;;;;;23.35;5.43;;;;;;;;;;5070412;28;20053;-73
2022/07/07 13:30:25;;;;;;;18.88;4.50;;;;;;;;;;5088402;28;20495;-73
2022/07/07 13:32:55;;;;;;;14.63;3.25;;;;;;;;;;5087476;28;20100;-73
2022/07/07 13:35:25;;;;;;;19.55;4.88;;;;;;;;;;5087683;28;20059;-73
2022/07/07 13:37:55;;;;;;;19.05;3.58;;;;;;;;;;5087927;28;20056;-74
2022/07/07 13:40:25;;;;;;;30.15;4.10;;;;;;;;;;5088193;28;20059;-73
2022/07/07 13:43:04;;;;;;;21.30;3.85;;;;;;;;;;5087946;28;20490;-73
2022/07/07 13:45:34;;;;;;;11.88;2.97;;;;;;;;;;5087921;28;20406;-72
2022/07/07 13:48:04;;;;;;;12.23;3.13;;;;;;;;;;5087709;28;20048;-77
2022/07/07 13:50:34;;;;;;;11.93;2.30;;;;;;;;;;5087879;28;20048;-73
2022/07/07 13:53:04;;;;;;;6.57;2.20;;;;;;;;;;5087679;28;20044;-72
2022/07/07 13:55:34;;;;;;;8.75;2.85;;;;;;;;;;5087636;28;20529;-73
2022/07/07 13:58:05;;;;;;;10.05;1.92;;;;;;;;;;5087396;28;20044;-75
2022/07/07 14:00:34;;;;;;;9.05;2.00;;;;;;;;;;5087802;28;20048;-73
2022/07/07 14:03:04;;;;;;;5.78;2.20;;;;;;;;;;5087135;28;20047;-74
2022/07/07 14:05:34;;;;;;;16.55;2.15;;;;;;;;;;5087715;28;20055;-74
2022/07/07 14:08:04;;;;;;;4.53;1.95;;;;;;;;;;5087361;28;20067;-73
2022/07/07 14:10:34;;;;;;;4.68;2.00;;;;;;;;;;5067928;28;20051;-73
2022/07/07 14:13:04;;;;;;;6.35;2.25;;;;;;;;;;5086796;28;20051;-73
2022/07/07 14:15:34;;;;;;;6.45;2.17;;;;;;;;;;5087675;28;20048;-73
2022/07/07 14:18:04;;;;;;;7.82;2.65;;;;;;;;;;5087396;28;20036;-72
2022/07/07 14:20:34;;;;;;;7.43;2.30;;;;;;;;;;5087533;28;20411;-74
2022/07/07 14:23:04;;;;;;;6.05;2.08;;;;;;;;;;5087369;28;20052;-73
2022/07/07 14:25:33;;;;;;;9.25;2.50;;;;;;;;;;5086819;28;20387;-73
2022/07/07 14:28:09;;;;;;;9.07;1.95;;;;;;;;;;5086973;28;20055;-75
2022/07/07 14:30:39;;;;;;;5.70;2.63;;;;;;;;;;5069339;28;20043;-73
2022/07/07 14:33:09;;;;;;;8.25;2.50;;;;;;;;;;5087715;28;20067;-73
2022/07/07 14:35:39;;;;;;;14.20;2.67;;;;;;;;;;5087139;28;20494;-73
2022/07/07 14:38:09;;;;;;;13.27;2.70;;;;;;;;;;5086840;28;20071;-73
2022/07/07 14:40:39;;;;;;;9.52;2.40;;;;;;;;;;5087572;28;20044;-72
2022/07/07 14:43:10;;;;;;;4.75;1.98;;;;;;;;;;5087490;28;20399;-73
2022/07/07 14:45:39;;;;;;;7.25;2.45;;;;;;;;;;5069115;28;20048;-73
2022/07/07 14:48:09;;;;;;;6.93;2.25;;;;;;;;;;5086749;28;20051;-73
2022/07/07 14:50:40;;;;;;;11.98;3.10;;;;;;;;;;5086848;28;20048;-73
2022/07/07 14:53:10;;;;;;;12.95;3.30;;;;;;;;;;5086743;28;20537;-73
2022/07/07 14:55:40;;;;;;;21.85;3.90;;;;;;;;;;5086830;28;20043;-73
2022/07/07 14:58:10;;;;;;;23.45;4.78;;;;;;;;;;5068544;28;20048;-74
2022/07/07 15:00:39;;;;;;;16.90;4.63;;;;;;;;;;5086349;28;20051;-73
2022/07/07 15:03:09;;;;;;;11.57;3.70;;;;;;;;;;5090972;28;20052;-73
2022/07/07 15:05:39;;;;;;;10.82;3.22;;;;;;;;;;5090978;28;20044;-73
2022/07/07 15:08:09;;;;;;;18.10;3.45;;;;;;;;;;5071604;28;20509;-73
2022/07/07 15:10:39;;;;;;;12.63;3.40;;;;;;;;;;5091839;28;20044;-74
2022/07/07 15:13:09;;;;;;;11.27;3.42;;;;;;;;;;5090377;28;20428;-73
2022/07/07 15:15:45;;;;;;;13.48;3.13;;;;;;;;;;5091093;28;20052;-74